Pagrindinis puslapis
METAR-TAF:

METAR-TAF

Oro uostai :

Resistensija, Argentina

platuma: 27-27S, ilguma: 059-03W, Aukštis: 53 m

Dabartinis oras

Ataskaita buvo paskelbta 1 valandą ir 6 minutes, ne 13:00 UTC
Vėjas 9 kt iš Rytų/Pietryčių
Temperatūra 17°C
Drėgmė 36%
Slėgis 1024 hPa
Matomumas 10 km arba daugiau
nėra debesų žemiau 1500 m ir nėra kamuolinių lietaus debesų

METAR: SARE 201300Z 11009KT CAVOK 17/02 Q1024

Laikas: 11:06 (14:06 UTC)

Prognozė

Ataskaita buvo paskelbta 3 valandos ir 6 minutes, ne 11:00 UTC
Prognozė galioja nuo 20 metu 12 UTC su 21 metu 12 UTC
Vėjas 10 kt iš Pietryčių
Matomumas 10 km arba daugiau
nėra debesų žemiau 1500 m ir nėra kamuolinių lietaus debesų

TAF: SARE 201100Z 2012/2112 14010KT CAVOK TX23/2018Z TN12/2110Z

Orai ataskaitas ir orų prognozės (METAR, TAF).

turimą stotys yra geltonos ir raudonos taškus žemėlapyje.

Perkelti pele per norėdami pamatyti stoties vardą.

Tada spustelėkite, norėdami matyti oro stebėjimo ir prognozės.

Norėdami pakeisti žemėlapį: spustelėkite ant žalios mygtukų su juodo kryžiaus žemyn,; žalią mygtuką su brūkšneliu, jei norite nutolinti; arba žalių rodyklių gretimoms žemėlapius.


METAR-TAF: